createdAt,value
2018-05-09T00:01:00.378Z,22.80
2018-05-09T00:03:27.971Z,26.53
2018-05-09T00:05:55.568Z,28.57
2018-05-09T00:08:23.183Z,41.17
2018-05-09T00:10:50.777Z,25.73
2018-05-09T00:13:18.471Z,23.07
2018-05-09T00:15:46.102Z,34.37
2018-05-09T00:18:13.791Z,25.70
2018-05-09T00:20:41.448Z,33.57
2018-05-09T00:23:09.071Z,24.23
2018-05-09T00:25:36.683Z,24.37
2018-05-09T00:28:04.285Z,24.33
2018-05-09T00:30:31.922Z,26.83
2018-05-09T00:32:59.520Z,27.53
2018-05-09T00:35:27.218Z,24.23
2018-05-09T00:37:54.894Z,22.77
2018-05-09T00:40:22.484Z,22.47
2018-05-09T00:42:50.218Z,33.33
2018-05-09T00:45:18.561Z,24.40
2018-05-09T00:47:46.163Z,22.93
2018-05-09T00:50:13.799Z,34.23
2018-05-09T00:52:41.456Z,29.53
2018-05-09T00:55:09.044Z,38.00
2018-05-09T00:57:36.640Z,22.70
2018-05-09T01:00:04.273Z,31.50
2018-05-09T01:02:31.854Z,37.50
2018-05-09T01:04:59.448Z,29.40
2018-05-09T01:07:29.745Z,25.57
2018-05-09T01:09:57.346Z,32.10
2018-05-09T01:12:24.936Z,24.63
2018-05-09T01:14:52.578Z,20.67
2018-05-09T01:17:20.164Z,32.20
2018-05-09T01:19:47.759Z,19.77
2018-05-09T01:22:15.392Z,47.87
2018-05-09T01:24:43.023Z,22.57
2018-05-09T01:27:10.652Z,25.13
2018-05-09T01:29:38.360Z,33.53
2018-05-09T01:32:05.948Z,27.07
2018-05-09T01:34:33.572Z,26.00
2018-05-09T01:37:01.204Z,25.33
2018-05-09T01:39:28.895Z,25.40
2018-05-09T01:41:56.487Z,31.70
2018-05-09T01:44:24.118Z,45.33
2018-05-09T01:46:51.885Z,31.70
2018-05-09T01:49:19.539Z,25.60
2018-05-09T01:51:47.178Z,22.93
2018-05-09T01:54:14.882Z,28.60
2018-05-09T01:56:42.528Z,21.50
2018-05-09T01:59:10.160Z,30.83
2018-05-09T02:01:37.754Z,24.83
2018-05-09T02:04:05.356Z,21.77
2018-05-09T02:06:33.182Z,29.07
2018-05-09T02:09:00.776Z,29.80
2018-05-09T02:11:28.619Z,21.80
2018-05-09T02:13:56.283Z,24.90
2018-05-09T02:16:24.036Z,27.37
2018-05-09T02:18:51.625Z,21.13
2018-05-09T02:21:19.247Z,25.47
2018-05-09T02:23:46.827Z,22.50
2018-05-09T02:26:14.411Z,22.10
2018-05-09T02:28:42.029Z,24.53
2018-05-09T02:31:09.728Z,21.20
2018-05-09T02:33:37.476Z,30.03
2018-05-09T02:36:05.138Z,31.13
2018-05-09T02:38:33.008Z,31.87
2018-05-09T02:41:00.729Z,23.63
2018-05-09T02:43:28.355Z,21.53
2018-05-09T02:45:56.188Z,21.57
2018-05-09T02:48:23.775Z,25.33
2018-05-09T02:50:51.415Z,18.70
2018-05-09T02:53:19.005Z,26.70
2018-05-09T02:55:46.599Z,25.30
2018-05-09T02:58:14.229Z,34.63
2018-05-09T03:00:41.803Z,30.00
2018-05-09T03:03:09.393Z,28.60
2018-05-09T03:05:37.035Z,40.43
2018-05-09T03:08:04.671Z,26.63
2018-05-09T03:10:32.265Z,23.70
2018-05-09T03:12:59.891Z,23.63
2018-05-09T03:15:27.473Z,21.50
2018-05-09T03:17:55.064Z,18.60
2018-05-09T03:20:22.698Z,24.53
2018-05-09T03:22:50.505Z,28.40
2018-05-09T03:25:18.168Z,21.03
2018-05-09T03:27:46.031Z,22.30
2018-05-09T03:30:13.617Z,21.13
2018-05-09T03:32:41.202Z,17.53
2018-05-09T03:35:08.827Z,22.40
2018-05-09T03:37:36.466Z,24.37
2018-05-09T03:40:04.053Z,29.83
2018-05-09T03:42:31.804Z,24.57
2018-05-09T03:44:59.462Z,29.43
2018-05-09T03:47:27.043Z,20.50
2018-05-09T03:49:54.654Z,30.97
2018-05-09T03:52:22.232Z,23.30
2018-05-09T03:54:49.914Z,35.33
2018-05-09T03:57:17.535Z,24.13
2018-05-09T03:59:45.108Z,37.50
2018-05-09T04:02:24.627Z,28.00
2018-05-09T04:05:03.867Z,26.30
2018-05-09T04:07:43.204Z,20.17
2018-05-09T04:10:11.642Z,26.07
2018-05-09T04:12:39.398Z,20.10
2018-05-09T04:15:07.060Z,26.33
2018-05-09T04:17:34.706Z,19.10
2018-05-09T04:20:02.377Z,37.60
2018-05-09T04:22:30.172Z,27.30
2018-05-09T04:24:57.951Z,18.83
2018-05-09T04:27:25.565Z,26.30
2018-05-09T04:29:53.192Z,13.10
2018-05-09T04:32:20.776Z,11.67
2018-05-09T04:34:48.557Z,17.00
2018-05-09T04:37:16.178Z,21.40
2018-05-09T04:39:44.014Z,23.87
2018-05-09T04:42:11.661Z,28.10
2018-05-09T04:44:39.294Z,12.43
2018-05-09T04:47:06.870Z,22.53
2018-05-09T04:49:34.455Z,16.40
2018-05-09T04:52:02.063Z,22.77
2018-05-09T04:54:29.644Z,24.03
2018-05-09T04:56:57.252Z,19.43
2018-05-09T04:59:24.883Z,13.83
2018-05-09T05:01:52.468Z,13.83
2018-05-09T05:04:20.052Z,12.30
2018-05-09T05:06:47.672Z,12.43
2018-05-09T05:09:15.248Z,15.40
2018-05-09T05:11:42.825Z,10.30
2018-05-09T05:14:10.440Z,11.80
2018-05-09T05:16:38.025Z,19.37
2018-05-09T05:19:05.609Z,12.03
2018-05-09T05:21:33.252Z,12.30
2018-05-09T05:24:00.826Z,13.07
2018-05-09T05:26:28.416Z,23.63
2018-05-09T05:28:56.015Z,16.43
2018-05-09T05:31:23.610Z,22.87
2018-05-09T05:33:51.197Z,22.17
2018-05-09T05:36:18.816Z,15.03
2018-05-09T05:38:46.420Z,14.60
2018-05-09T05:41:14.007Z,23.53
2018-05-09T05:43:41.625Z,15.77
2018-05-09T05:46:09.199Z,22.30
2018-05-09T05:48:36.766Z,20.27
2018-05-09T05:51:04.396Z,22.40
2018-05-09T05:53:31.983Z,17.60
2018-05-09T05:55:59.560Z,16.33
2018-05-09T05:58:27.212Z,17.77
2018-05-09T06:00:54.799Z,15.83
2018-05-09T06:03:22.366Z,15.03
2018-05-09T06:05:49.993Z,12.80
2018-05-09T06:08:17.568Z,10.87
2018-05-09T06:10:45.175Z,10.30
2018-05-09T06:13:12.782Z,19.70
2018-05-09T06:15:40.496Z,15.33
2018-05-09T06:18:08.063Z,19.90
2018-05-09T06:20:35.672Z,18.67
2018-05-09T06:23:03.247Z,14.90
2018-05-09T06:25:30.833Z,16.60
2018-05-09T06:27:58.448Z,30.47
2018-05-09T06:30:26.024Z,21.40
2018-05-09T06:32:53.610Z,32.40
2018-05-09T06:35:21.247Z,44.13
2018-05-09T06:37:48.899Z,45.47
2018-05-09T06:40:16.524Z,64.37
2018-05-09T06:42:44.145Z,34.43
2018-05-09T06:45:11.732Z,37.00
2018-05-09T06:47:39.353Z,44.50
2018-05-09T06:50:07.016Z,23.60
2018-05-09T06:52:34.594Z,38.97
2018-05-09T06:55:02.175Z,43.47
2018-05-09T06:57:29.788Z,30.87
2018-05-09T06:59:57.445Z,43.00
2018-05-09T07:02:24.974Z,20.23
2018-05-09T07:04:52.599Z,36.10
2018-05-09T07:07:20.183Z,27.83
2018-05-09T07:09:47.768Z,18.90
2018-05-09T07:12:15.367Z,21.90
2018-05-09T07:14:42.952Z,19.70
2018-05-09T07:17:10.541Z,30.23
2018-05-09T07:19:38.241Z,24.13
2018-05-09T07:22:05.842Z,23.40
2018-05-09T07:24:33.434Z,15.23
2018-05-09T07:27:01.049Z,12.37
2018-05-09T07:29:28.637Z,22.23
2018-05-09T07:31:56.228Z,17.83
2018-05-09T07:34:23.833Z,17.03
2018-05-09T07:36:51.442Z,21.47
2018-05-09T07:39:19.015Z,20.60
2018-05-09T07:41:46.637Z,17.83
2018-05-09T07:44:14.221Z,17.00
2018-05-09T07:46:41.797Z,17.23
2018-05-09T07:49:09.457Z,14.63
2018-05-09T07:51:37.243Z,10.10
2018-05-09T07:54:04.823Z,11.80
2018-05-09T07:56:32.437Z,13.23
2018-05-09T07:59:00.023Z,16.57
2018-05-09T08:01:27.608Z,15.63
2018-05-09T08:03:55.228Z,14.00
2018-05-09T08:06:22.808Z,11.57
2018-05-09T08:08:50.397Z,8.30
2018-05-09T08:11:18.007Z,9.27
2018-05-09T08:13:45.579Z,13.40
2018-05-09T08:16:13.169Z,6.70
2018-05-09T08:18:40.780Z,8.77
2018-05-09T08:21:08.358Z,8.73
2018-05-09T08:23:35.940Z,19.93
2018-05-09T08:26:03.555Z,10.77
2018-05-09T08:28:31.137Z,9.40
2018-05-09T08:30:58.750Z,6.03
2018-05-09T08:33:26.370Z,5.97
2018-05-09T08:35:53.952Z,14.80
2018-05-09T08:38:21.535Z,17.43
2018-05-09T08:40:49.139Z,6.47
2018-05-09T08:43:16.815Z,8.90
2018-05-09T08:45:44.323Z,5.83
2018-05-09T08:48:11.952Z,10.67
2018-05-09T08:50:39.544Z,6.03
2018-05-09T08:53:07.127Z,8.60
2018-05-09T08:55:34.795Z,20.67
2018-05-09T08:58:02.375Z,13.23
2018-05-09T09:00:29.955Z,6.93
2018-05-09T09:02:57.569Z,6.33
2018-05-09T09:05:25.144Z,6.23
2018-05-09T09:07:52.723Z,9.13
2018-05-09T09:10:20.343Z,10.77
2018-05-09T09:12:47.918Z,7.57
2018-05-09T09:15:15.492Z,10.93
2018-05-09T09:17:43.153Z,7.10
2018-05-09T09:20:10.748Z,11.23
2018-05-09T09:22:38.492Z,11.53
2018-05-09T09:25:06.141Z,11.10
2018-05-09T09:27:33.867Z,9.20
2018-05-09T09:30:01.511Z,5.57
2018-05-09T09:32:29.346Z,17.83
2018-05-09T09:34:57.010Z,10.40
2018-05-09T09:37:24.673Z,9.00
2018-05-09T09:39:52.447Z,10.77
2018-05-09T09:42:20.085Z,11.03
2018-05-09T09:44:47.658Z,7.70
2018-05-09T09:47:15.285Z,10.63
2018-05-09T09:49:42.864Z,8.93
2018-05-09T09:52:10.632Z,19.50
2018-05-09T09:54:38.255Z,16.57
2018-05-09T09:57:05.956Z,13.03
2018-05-09T09:59:33.631Z,9.90
2018-05-09T10:02:01.255Z,5.87
2018-05-09T10:04:28.946Z,12.50
2018-05-09T10:06:56.617Z,28.43
2018-05-09T10:09:24.269Z,14.43
2018-05-09T10:11:51.849Z,12.90
2018-05-09T10:14:19.423Z,16.13
2018-05-09T10:16:47.052Z,11.20
2018-05-09T10:19:14.638Z,12.10
2018-05-09T10:21:42.371Z,30.07
2018-05-09T10:24:09.992Z,10.60
2018-05-09T10:26:37.589Z,19.43
2018-05-09T10:29:05.355Z,11.97
2018-05-09T10:31:34.077Z,5.17
2018-05-09T10:34:01.905Z,11.60
2018-05-09T10:36:29.577Z,4.63
2018-05-09T10:38:57.233Z,10.10
2018-05-09T10:41:24.803Z,21.50
2018-05-09T10:43:52.574Z,13.53
2018-05-09T10:46:20.206Z,6.00
2018-05-09T10:48:47.825Z,9.00
2018-05-09T10:51:15.548Z,7.97
2018-05-09T10:53:43.227Z,5.17
2018-05-09T10:56:10.871Z,5.83
2018-05-09T10:58:38.441Z,9.97
2018-05-09T11:01:06.194Z,8.00
2018-05-09T11:03:33.820Z,11.20
2018-05-09T11:06:01.535Z,7.83
2018-05-09T11:08:29.181Z,12.33
2018-05-09T11:10:56.847Z,7.93
2018-05-09T11:13:24.419Z,7.53
2018-05-09T11:15:52.029Z,10.90
2018-05-09T11:18:19.640Z,10.73
2018-05-09T11:20:47.290Z,5.90
2018-05-09T11:23:14.904Z,13.73
2018-05-09T11:25:42.818Z,9.23
2018-05-09T11:28:10.479Z,9.30
2018-05-09T11:30:38.144Z,5.10
2018-05-09T11:33:05.817Z,13.00
2018-05-09T11:35:33.395Z,15.47
2018-05-09T11:38:01.007Z,10.40
2018-05-09T11:40:28.795Z,6.37
2018-05-09T11:42:56.380Z,13.87
2018-05-09T11:45:24.008Z,17.33
2018-05-09T11:47:51.792Z,17.70
2018-05-09T11:50:19.452Z,11.37
2018-05-09T11:52:47.206Z,14.30
2018-05-09T11:55:14.804Z,8.63
2018-05-09T11:57:42.540Z,18.67
2018-05-09T12:00:10.162Z,9.03
2018-05-09T12:02:37.883Z,34.60
2018-05-09T12:05:05.517Z,14.83
2018-05-09T12:07:33.189Z,18.00
2018-05-09T12:10:00.909Z,9.73
2018-05-09T12:12:28.499Z,12.80
2018-05-09T12:14:56.163Z,31.43
2018-05-09T12:17:23.742Z,11.10
2018-05-09T12:19:51.325Z,18.50
2018-05-09T12:22:19.153Z,15.37
2018-05-09T12:24:46.829Z,15.67
2018-05-09T12:27:14.414Z,15.33
2018-05-09T12:29:42.343Z,35.83
2018-05-09T12:32:10.005Z,29.27
2018-05-09T12:34:37.636Z,10.03
2018-05-09T12:37:05.345Z,11.23
2018-05-09T12:39:32.989Z,17.93
2018-05-09T12:42:00.567Z,14.83
2018-05-09T12:44:28.297Z,10.40
2018-05-09T12:46:55.867Z,9.03
2018-05-09T12:49:23.657Z,8.30
2018-05-09T12:51:51.277Z,19.30
2018-05-09T12:54:18.852Z,12.97
2018-05-09T12:56:46.546Z,9.77
2018-05-09T12:59:14.613Z,25.17
2018-05-09T13:01:42.230Z,18.77
2018-05-09T13:04:09.867Z,25.13
2018-05-09T13:06:37.475Z,8.50
2018-05-09T13:09:05.125Z,13.23
2018-05-09T13:11:32.699Z,13.33
2018-05-09T13:14:00.289Z,14.30
2018-05-09T13:16:28.025Z,19.63
2018-05-09T13:18:55.617Z,21.90
2018-05-09T13:21:23.238Z,30.33
2018-05-09T13:23:50.823Z,21.33
2018-05-09T13:26:18.391Z,9.93
2018-05-09T13:28:46.029Z,25.40
2018-05-09T13:31:13.776Z,27.20
2018-05-09T13:33:41.379Z,23.53
2018-05-09T13:36:09.005Z,17.97
2018-05-09T13:38:36.588Z,23.77
2018-05-09T13:41:04.322Z,15.43
2018-05-09T13:43:31.951Z,18.70
2018-05-09T13:45:59.968Z,27.40
2018-05-09T13:48:27.961Z,32.47
2018-05-09T13:50:55.640Z,24.83
2018-05-09T13:53:23.377Z,30.10
2018-05-09T13:55:51.051Z,24.37
2018-05-09T13:58:18.680Z,21.83
2018-05-09T14:00:46.374Z,25.80
2018-05-09T14:03:14.023Z,14.00
2018-05-09T14:05:41.635Z,34.40
2018-05-09T14:08:09.307Z,27.53
2018-05-09T14:10:36.902Z,27.93
2018-05-09T14:13:04.565Z,24.80
2018-05-09T14:15:32.278Z,35.53
2018-05-09T14:17:59.977Z,26.00
2018-05-09T14:20:27.923Z,42.97
2018-05-09T14:22:55.640Z,35.40
2018-05-09T14:25:23.211Z,26.30
2018-05-09T14:27:50.829Z,40.37
2018-05-09T14:30:18.420Z,61.77
2018-05-09T14:32:46.079Z,40.93
2018-05-09T14:35:13.728Z,31.90
2018-05-09T14:37:41.398Z,43.13
2018-05-09T14:40:09.069Z,102.47
2018-05-09T14:42:36.686Z,51.80
2018-05-09T14:45:04.382Z,64.23
2018-05-09T14:47:32.053Z,30.93
2018-05-09T14:49:59.720Z,52.73
2018-05-09T14:52:27.361Z,28.00
2018-05-09T14:54:54.941Z,24.17
2018-05-09T14:57:22.556Z,33.20
2018-05-09T14:59:50.130Z,32.17
2018-05-09T15:02:17.831Z,34.67
2018-05-09T15:04:45.441Z,20.00
2018-05-09T15:07:13.021Z,45.70
2018-05-09T15:09:40.600Z,42.77
2018-05-09T15:12:08.244Z,15.93
2018-05-09T15:14:35.824Z,33.67
2018-05-09T15:17:03.399Z,17.73
2018-05-09T15:19:31.147Z,26.03
2018-05-09T15:21:58.677Z,29.87
2018-05-09T15:24:26.583Z,17.80
2018-05-09T15:26:54.448Z,21.37
2018-05-09T15:29:22.075Z,21.40
2018-05-09T15:31:49.831Z,25.73
2018-05-09T15:34:17.441Z,19.47
2018-05-09T15:36:45.018Z,31.20
2018-05-09T15:39:12.645Z,30.23
2018-05-09T15:41:40.227Z,32.23
2018-05-09T15:44:07.858Z,29.83
2018-05-09T15:46:35.544Z,27.23
2018-05-09T15:49:03.171Z,20.73
2018-05-09T15:51:30.855Z,36.30
2018-05-09T15:53:58.442Z,18.30
2018-05-09T15:56:26.389Z,30.30
2018-05-09T15:58:53.959Z,21.90
2018-05-09T16:01:21.707Z,26.77
2018-05-09T16:03:49.366Z,32.33
2018-05-09T16:06:16.923Z,23.43
2018-05-09T16:08:44.511Z,28.13
2018-05-09T16:11:12.140Z,32.07
2018-05-09T16:13:39.826Z,21.60
2018-05-09T16:16:07.459Z,34.10
2018-05-09T16:18:35.068Z,17.00
2018-05-09T16:21:02.649Z,11.17
2018-05-09T16:23:30.235Z,45.70
2018-05-09T16:25:57.844Z,21.60
2018-05-09T16:28:25.582Z,44.23
2018-05-09T16:30:53.256Z,23.17
2018-05-09T16:33:20.883Z,32.60
2018-05-09T16:35:48.471Z,40.63
2018-05-09T16:38:16.228Z,25.30
2018-05-09T16:40:44.108Z,37.47
2018-05-09T16:43:11.816Z,37.00
2018-05-09T16:45:39.625Z,22.70
2018-05-09T16:48:07.256Z,36.40
2018-05-09T16:50:34.871Z,40.10
2018-05-09T16:53:02.626Z,43.10
2018-05-09T16:55:30.243Z,30.23
2018-05-09T16:57:57.949Z,28.77
2018-05-09T17:00:25.784Z,42.57
2018-05-09T17:02:53.416Z,31.17
2018-05-09T17:05:21.033Z,36.23
2018-05-09T17:07:48.798Z,37.30
2018-05-09T17:10:16.401Z,36.40
2018-05-09T17:12:44.017Z,27.13
2018-05-09T17:15:11.674Z,28.30
2018-05-09T17:17:39.296Z,34.07
2018-05-09T17:20:07.014Z,30.53
2018-05-09T17:22:34.599Z,23.83
2018-05-09T17:25:02.337Z,47.10
2018-05-09T17:27:30.051Z,33.43
2018-05-09T17:29:57.631Z,45.30
2018-05-09T17:32:25.242Z,34.10
2018-05-09T17:34:52.822Z,42.63
2018-05-09T17:37:20.486Z,44.50
2018-05-09T17:39:48.101Z,44.40
2018-05-09T17:42:15.713Z,37.77
2018-05-09T17:44:43.444Z,37.63
2018-05-09T17:47:11.076Z,27.57
2018-05-09T17:49:38.839Z,37.57
2018-05-09T17:52:06.460Z,40.93
2018-05-09T17:54:34.079Z,41.43
2018-05-09T17:57:01.846Z,40.13
2018-05-09T17:59:29.510Z,29.03
2018-05-09T18:01:57.152Z,43.90
2018-05-09T18:04:24.765Z,47.47
2018-05-09T18:06:52.353Z,34.03
2018-05-09T18:09:19.965Z,41.73
2018-05-09T18:11:47.557Z,28.90
2018-05-09T18:14:15.164Z,46.27
2018-05-09T18:16:42.778Z,40.83
2018-05-09T18:19:10.364Z,54.70
2018-05-09T18:21:37.953Z,34.03
2018-05-09T18:24:05.571Z,27.83
2018-05-09T18:26:33.163Z,21.53
2018-05-09T18:29:00.748Z,28.57
2018-05-09T18:31:28.378Z,29.40
2018-05-09T18:33:55.982Z,36.90
2018-05-09T18:36:23.577Z,36.87
2018-05-09T18:38:51.186Z,36.60
2018-05-09T18:41:18.746Z,32.93
2018-05-09T18:43:46.338Z,40.10
2018-05-09T18:46:13.970Z,48.40
2018-05-09T18:48:41.564Z,37.10
2018-05-09T18:51:09.151Z,42.40
2018-05-09T18:53:36.786Z,42.47
2018-05-09T18:56:04.365Z,35.47
2018-05-09T18:58:31.955Z,37.83
2018-05-09T19:00:59.594Z,30.50
2018-05-09T19:03:27.159Z,21.47
2018-05-09T19:05:54.751Z,41.87
2018-05-09T19:08:22.365Z,37.23
2018-05-09T19:10:49.932Z,44.20
2018-05-09T19:13:17.576Z,47.07
2018-05-09T19:15:45.183Z,54.67
2018-05-09T19:18:12.757Z,38.07
2018-05-09T19:20:40.335Z,33.30
2018-05-09T19:23:07.949Z,52.50
2018-05-09T19:25:35.534Z,24.43
2018-05-09T19:28:03.128Z,27.53
2018-05-09T19:30:30.754Z,48.03
2018-05-09T19:32:58.342Z,30.90
2018-05-09T19:35:25.934Z,37.40
2018-05-09T19:37:53.551Z,27.97
2018-05-09T19:40:21.133Z,44.03
2018-05-09T19:42:48.715Z,27.93
2018-05-09T19:45:16.426Z,54.17
2018-05-09T19:47:44.093Z,36.17
2018-05-09T19:50:11.670Z,32.87
2018-05-09T19:52:39.294Z,30.97
2018-05-09T19:55:06.951Z,37.27
2018-05-09T19:57:34.527Z,24.90
2018-05-09T20:00:02.158Z,30.00
2018-05-09T20:02:29.731Z,41.03
2018-05-09T20:04:57.306Z,35.63
2018-05-09T20:07:24.903Z,31.70
2018-05-09T20:09:52.473Z,33.47
2018-05-09T20:12:20.068Z,16.90
2018-05-09T20:14:47.692Z,27.90
2018-05-09T20:17:15.301Z,26.53
2018-05-09T20:19:42.909Z,33.70
2018-05-09T20:22:10.535Z,29.03
2018-05-09T20:24:38.132Z,53.67
2018-05-09T20:27:05.782Z,28.50
2018-05-09T20:29:33.401Z,41.60
2018-05-09T20:32:12.772Z,31.60
2018-05-09T20:34:40.395Z,26.57
2018-05-09T20:37:08.001Z,30.97
2018-05-09T20:39:35.601Z,36.90
2018-05-09T20:42:03.296Z,32.07
2018-05-09T20:44:30.825Z,49.57
2018-05-09T20:46:58.432Z,37.30
2018-05-09T20:49:26.049Z,51.63
2018-05-09T20:51:53.621Z,27.00
2018-05-09T20:54:21.186Z,29.37
2018-05-09T20:56:48.868Z,44.97
2018-05-09T20:59:16.429Z,41.23
2018-05-09T21:01:47.538Z,37.90
2018-05-09T21:04:15.167Z,25.43
2018-05-09T21:06:42.789Z,24.27
2018-05-09T21:09:10.450Z,31.27
2018-05-09T21:11:38.027Z,54.73
2018-05-09T21:14:05.650Z,31.70
2018-05-09T21:16:33.281Z,34.50
2018-05-09T21:19:00.943Z,28.43
2018-05-09T21:21:28.536Z,27.90
2018-05-09T21:23:56.137Z,31.90
2018-05-09T21:26:23.757Z,28.80
2018-05-09T21:28:51.371Z,38.10
2018-05-09T21:31:18.951Z,36.00
2018-05-09T21:33:46.565Z,23.27
2018-05-09T21:36:14.151Z,35.60
2018-05-09T21:38:41.736Z,22.23
2018-05-09T21:41:09.355Z,36.33
2018-05-09T21:43:36.946Z,28.77
2018-05-09T21:46:04.557Z,36.20
2018-05-09T21:48:32.163Z,27.07
2018-05-09T21:50:59.758Z,27.10
2018-05-09T21:53:27.342Z,35.13
2018-05-09T21:55:55.017Z,24.50
2018-05-09T21:58:22.606Z,28.67
2018-05-09T22:00:50.181Z,32.00
2018-05-09T22:03:17.785Z,26.20
2018-05-09T22:05:45.415Z,32.40
2018-05-09T22:08:13.007Z,31.57
2018-05-09T22:10:40.613Z,46.00
2018-05-09T22:13:08.300Z,32.13
2018-05-09T22:15:35.814Z,23.73
2018-05-09T22:18:03.434Z,19.47
2018-05-09T22:20:31.011Z,16.13
2018-05-09T22:22:58.596Z,25.37
2018-05-09T22:25:26.215Z,24.57
2018-05-09T22:27:53.807Z,25.00
2018-05-09T22:30:21.382Z,38.83
2018-05-09T22:32:49.021Z,20.83
2018-05-09T22:35:17.211Z,29.10
2018-05-09T22:37:44.805Z,40.97
2018-05-09T22:40:12.472Z,22.27
2018-05-09T22:42:40.060Z,23.67
2018-05-09T22:45:07.652Z,33.20
2018-05-09T22:47:35.283Z,20.27
2018-05-09T22:50:02.875Z,34.10
2018-05-09T22:52:30.464Z,32.47
2018-05-09T22:54:58.162Z,27.90
2018-05-09T22:57:25.713Z,25.97
2018-05-09T22:59:53.301Z,19.27
2018-05-09T23:02:20.941Z,26.83
2018-05-09T23:04:48.529Z,45.17
2018-05-09T23:07:16.124Z,36.67
2018-05-09T23:09:43.755Z,39.00
2018-05-09T23:12:11.335Z,18.33
2018-05-09T23:14:38.914Z,24.47
2018-05-09T23:17:06.545Z,24.67
2018-05-09T23:19:34.153Z,27.83
2018-05-09T23:22:01.737Z,35.03
2018-05-09T23:24:29.382Z,22.80
2018-05-09T23:26:56.969Z,22.37
2018-05-09T23:29:24.556Z,33.37
2018-05-09T23:31:52.180Z,35.23
2018-05-09T23:34:19.767Z,53.87
2018-05-09T23:36:47.352Z,32.00
2018-05-09T23:39:14.971Z,34.80
2018-05-09T23:41:42.553Z,25.13
2018-05-09T23:44:10.142Z,35.17
2018-05-09T23:46:37.767Z,29.10
2018-05-09T23:49:05.349Z,41.37
2018-05-09T23:51:32.936Z,50.27
2018-05-09T23:54:00.561Z,28.50
2018-05-09T23:56:28.164Z,26.90
2018-05-09T23:58:55.752Z,31.10
